Biggs Army Air Field (Fort Bliss)
KBIF : now visible

Airfield :











YOU CAN JOIN US ON...

 
LOGIN :

Register | Disclaimer

   EN    FR    IT 

 









Legend :    VFR   Marginal VFR   IFR   Intensive IFR   Very Intensive IFR
Visi :
Ceiling :
>= 8 km
>= 3000ft
5 to 8 km
1000 to 3000 ft
1500m to 5 km
500 to 1000 ft
800 to 1500m
200 to 500 ft
< 800m
< 200 ft
Symbols :   Thunderstorms  Fog  Heavy snow  Heavy precipitations  Wind > 20 kt






- Airport Elevation : 3946 ft


KBIF - Biggs Army Air Field (Fort Bliss)

CURRENT METAR :
  • 231658Z AUTO 00000KT 10SM FEW250 SCT270 34/07 A3000 RMK AO2 SLP081 T03440070 $

EXPIRED METARs :
  • 231558Z AUTO 31006KT 10SM CLR 33/07 A3000 RMK AO2 SLP081 T03280073 $
  • 231458Z AUTO 09004KT 9SM CLR 31/09 A3001 RMK AO2 SLP083 T03060089 52007 $

TAF TAF KBIF
Valid from the 23 at 14:00 until the 24 at 20:00 UTC


231400Z 2314/2420 09008KT 9999 SKC QNH2998INS
BECMG 2319/2320 24010KT 9999 BKN180 QNH2989INS
BECMG 2400/2401 25010G20KT 9999 BKN180 OVC220 510009 QNH2990INS
BECMG 2404/2405 28010KT 9999 FEW120 SCT150 QNH2993INS
BECMG 2410/2411 25008KT 9999 FEW130 QNH2999INS
BECMG 2418/2419 28010KT 9999 FEW140 QNH3000INS TX38/2322Z TN22/2412Z
KZAB FIR / North America



MET'MAP, your aeronautical weather chart ! - Copyright ORBIFLY December 2007 - Disclaimer

ORBIFLY MET'MAP TEAM :

Programming & Development : Alexandra Zaïnal
Concept & original design : Baudouin d'Aumeries
Assistance for programming : Marc-Olivier Méhu
Technical & hardware support : Manuel Goepfert

Contact : metmap@orbifly.com




SOURCES & CREDITS :

   NOAA       Earth
Advisory